Time;durP1;ratioP1;P1;durP2;ratioP2;P2;SDS_P1;SDS_P2;PMS_P1;PMS_P2;Temp;Humidity;BMP_temperature;BMP_pressure;BME280_temperature;BME280_humidity;BME280_pressure;Samples;Min_cycle;Max_cycle;Signal;HPM_P1;HPM_P2
2022/12/20 08:00:18;;;;;;;12.57;5.40;;;;;;;2.93;100.00;99349.63;5181165;27;20389;-85
2022/12/20 08:02:52;;;;;;;9.55;4.45;;;;;;;3.06;100.00;99322.56;5146531;27;20050;-86
2022/12/20 08:05:19;;;;;;;9.38;5.00;;;;;;;3.45;100.00;99355.00;5150157;27;20054;-86
2022/12/20 08:07:47;;;;;;;8.55;4.70;;;;;;;3.60;100.00;99360.84;5149427;27;20051;-86
2022/12/20 08:10:18;;;;;;;19.77;5.47;;;;;;;3.63;100.00;99336.38;5150373;27;20051;-86
2022/12/20 08:12:46;;;;;;;11.10;5.95;;;;;;;3.79;100.00;99346.63;5149229;27;20078;-87
2022/12/20 08:15:28;;;;;;;13.63;7.18;;;;;;;3.94;100.00;99352.47;5145453;27;20142;-82
2022/12/20 08:17:57;;;;;;;13.05;6.35;;;;;;;4.06;100.00;99346.00;5111481;27;20368;-82
2022/12/20 08:20:24;;;;;;;8.18;3.40;;;;;;;4.18;100.00;99335.94;5110104;28;20105;-82
2022/12/20 08:22:51;;;;;;;14.00;4.00;;;;;;;4.50;100.00;99354.56;5117259;27;20083;-82
2022/12/20 08:25:18;;;;;;;7.25;3.45;;;;;;;4.49;100.00;99319.69;5127510;27;20052;-82
2022/12/20 08:27:45;;;;;;;8.43;4.22;;;;;;;4.64;100.00;99337.09;5126554;27;20051;-82
2022/12/20 08:30:12;;;;;;;20.42;4.05;;;;;;;4.64;100.00;99312.00;5126637;27;20185;-82
2022/12/20 08:32:40;;;;;;;10.30;3.03;;;;;;;4.73;100.00;99311.16;5114975;27;20062;-82
2022/12/20 08:35:07;;;;;;;6.13;3.42;;;;;;;4.72;100.00;99294.13;5127688;27;20043;-82
2022/12/20 08:37:34;;;;;;;8.35;3.10;;;;;;;4.93;100.00;99307.44;5126628;27;20044;-82
2022/12/20 08:40:01;;;;;;;11.23;3.42;;;;;;;5.09;100.00;99314.06;5126731;27;20401;-82
2022/12/20 08:42:28;;;;;;;8.88;4.10;;;;;;;5.12;100.00;99327.25;5123727;27;20078;-82
2022/12/20 08:44:54;;;;;;;7.78;4.22;;;;;;;5.18;100.00;99325.81;5118240;27;20486;-82
2022/12/20 08:47:21;;;;;;;10.65;2.92;;;;;;;5.20;100.00;99316.59;5120044;27;20421;-82
2022/12/20 08:49:49;;;;;;;13.05;3.38;;;;;;;5.20;100.00;99308.50;5127438;27;20096;-82
2022/12/20 08:52:18;;;;;;;5.13;2.90;;;;;;;5.22;100.00;99311.88;5120302;27;20044;-82
2022/12/20 08:54:45;;;;;;;4.82;2.90;;;;;;;5.27;100.00;99306.06;5110024;28;20048;-82
2022/12/20 08:57:12;;;;;;;6.82;3.22;;;;;;;5.35;100.00;99286.47;5128177;28;20047;-82
2022/12/20 08:59:39;;;;;;;9.48;4.22;;;;;;;5.53;100.00;99300.00;5127272;27;20104;-82
2022/12/20 09:02:06;;;;;;;4.18;2.47;;;;;;;5.48;100.00;99289.69;5114519;28;20046;-83
2022/12/20 09:04:33;;;;;;;7.57;3.65;;;;;;;5.61;100.00;99297.41;5125348;28;20434;-82
2022/12/20 09:07:01;;;;;;;4.93;2.83;;;;;;;5.59;100.00;99289.47;5126266;28;20417;-82
2022/12/20 09:09:28;;;;;;;4.47;2.45;;;;;;;5.76;100.00;99297.75;5120389;28;20048;-82
2022/12/20 09:11:56;;;;;;;6.93;3.15;;;;;;;5.86;100.00;99285.06;5113731;28;20060;-82
2022/12/20 09:14:23;;;;;;;5.22;3.22;;;;;;;5.91;100.00;99277.34;5113220;28;20090;-81
2022/12/20 09:16:50;;;;;;;8.13;3.72;;;;;;;6.00;100.00;99297.22;5113139;28;20534;-83
2022/12/20 09:19:16;;;;;;;3.60;2.28;;;;;;;5.92;100.00;99264.72;5113120;28;20439;-82
2022/12/20 09:21:43;;;;;;;4.57;2.80;;;;;;;6.02;100.00;99269.06;5109117;28;20043;-82
2022/12/20 09:24:11;;;;;;;8.52;3.00;;;;;;;6.10;100.00;99286.34;5102802;28;20490;-82
2022/12/20 09:26:39;;;;;;;7.00;3.15;;;;;;;6.15;100.00;99284.88;5104739;28;20054;-82
2022/12/20 09:29:06;;;;;;;6.47;3.05;;;;;;;6.01;100.00;99259.28;5113441;28;20051;-82
2022/12/20 09:31:32;;;;;;;4.63;2.75;;;;;;;6.11;100.00;99279.94;5111948;27;20043;-82
2022/12/20 09:34:00;;;;;;;7.90;3.28;;;;;;;6.11;100.00;99271.84;5109679;28;20060;-82
2022/12/20 09:36:29;;;;;;;8.57;3.50;;;;;;;6.25;100.00;99292.03;5106385;28;20048;-82
2022/12/20 09:38:55;;;;;;;7.32;3.63;;;;;;;6.20;100.00;99279.88;5108776;28;20401;-82
2022/12/20 09:41:33;;;;;;;5.53;2.95;;;;;;;6.38;100.00;99290.69;5105319;28;20048;-83
2022/12/20 09:44:04;;;;;;;10.43;3.78;;;;;;;6.41;100.00;99311.09;5112315;28;20464;-82
2022/12/20 09:46:32;;;;;;;5.63;2.63;;;;;;;6.27;100.00;99287.34;5111556;28;20052;-82
2022/12/20 09:48:58;;;;;;;8.05;3.20;;;;;;;6.28;100.00;99272.84;5112684;28;20047;-83
2022/12/20 09:51:44;;;;;;;5.15;2.97;;;;;;;6.26;100.00;99253.25;5112907;28;20111;-82
2022/12/20 09:54:21;;;;;;;6.22;2.88;;;;;;;6.25;100.00;99257.81;5100053;28;20048;-82
2022/12/20 09:56:56;;;;;;;6.75;2.92;;;;;;;6.31;100.00;99267.16;5108078;28;20043;-82
2022/12/20 09:59:23;;;;;;;5.85;2.80;;;;;;;6.33;100.00;99252.47;5112253;28;20405;-82
2022/12/20 10:01:50;;;;;;;5.13;2.92;;;;;;;6.42;100.00;99261.50;5112072;28;20402;-82
2022/12/20 10:04:22;;;;;;;4.70;3.28;;;;;;;6.42;100.00;99260.66;5103792;28;20130;-82
2022/12/20 10:07:05;;;;;;;6.03;3.00;;;;;;;6.40;100.00;99265.34;5109462;28;20043;-82
2022/12/20 10:09:49;;;;;;;5.57;3.72;;;;;;;6.48;100.00;99258.16;5105526;28;20054;-82
2022/12/20 10:12:27;;;;;;;5.32;2.70;;;;;;;6.42;100.00;99244.47;5111186;28;20054;-82
2022/12/20 10:15:10;;;;;;;6.25;2.83;;;;;;;6.52;100.00;99264.13;5111068;28;20055;-81
2022/12/20 10:17:46;;;;;;;9.43;2.85;;;;;;;6.59;100.00;99273.28;5097381;28;20043;-82
2022/12/20 10:20:45;;;;;;;7.97;2.58;;;;;;;6.60;100.00;99255.22;5103720;28;20043;-82
2022/12/20 10:23:22;;;;;;;23.23;9.73;;;;;;;6.69;100.00;99262.38;5079868;28;20421;-81
2022/12/20 10:25:50;;;;;;;30.58;13.95;;;;;;;6.49;100.00;99240.13;5110594;28;20048;-82
2022/12/20 10:28:24;;;;;;;13.20;6.07;;;;;;;6.53;100.00;99242.34;5110698;28;20579;-82
2022/12/20 10:30:51;;;;;;;6.65;3.80;;;;;;;6.61;100.00;99271.28;5111568;28;20568;-82
2022/12/20 10:33:21;;;;;;;7.72;4.45;;;;;;;6.61;100.00;99256.91;5109738;28;20051;-82
2022/12/20 10:35:49;;;;;;;8.85;3.50;;;;;;;6.48;100.00;99236.56;5103135;28;20040;-82
2022/12/20 10:38:17;;;;;;;7.88;3.75;;;;;;;6.58;100.00;99241.00;5106093;28;20051;-82
2022/12/20 10:40:45;;;;;;;9.38;4.75;;;;;;;6.65;100.00;99250.19;5112577;28;20063;-82
2022/12/20 10:43:16;;;;;;;8.00;3.72;;;;;;;6.86;100.00;99250.66;5110023;28;20051;-82
2022/12/20 10:45:55;;;;;;;13.82;5.32;;;;;;;6.85;100.00;99218.41;5111135;28;20403;-82
2022/12/20 10:48:29;;;;;;;8.70;4.00;;;;;;;6.86;100.00;99209.28;5101817;28;20051;-82
2022/12/20 10:50:58;;;;;;;4.38;3.00;;;;;;;7.01;98.63;99194.16;5101746;28;20051;-81
2022/12/20 10:53:26;;;;;;;8.13;3.17;;;;;;;7.00;97.64;99195.19;5103012;28;20074;-82
2022/12/20 10:55:53;;;;;;;5.93;2.75;;;;;;;7.14;98.41;99220.78;5104868;28;20470;-82
2022/12/20 10:58:31;;;;;;;6.05;2.85;;;;;;;7.19;96.42;99206.78;5107024;28;20047;-82
2022/12/20 11:01:11;;;;;;;3.92;2.92;;;;;;;7.14;97.33;99209.13;5108247;28;20043;-81
2022/12/20 11:03:50;;;;;;;4.15;2.58;;;;;;;7.21;96.04;99213.72;5110793;28;20040;-82
2022/12/20 11:06:18;;;;;;;5.50;2.87;;;;;;;7.03;96.65;99189.47;5105841;28;20502;-82
2022/12/20 11:08:45;;;;;;;4.25;2.63;;;;;;;7.24;96.00;99207.13;5102057;28;20048;-82
2022/12/20 11:11:15;;;;;;;6.43;2.63;;;;;;;7.22;96.43;99188.34;5108513;28;20127;-82
2022/12/20 11:13:43;;;;;;;5.32;2.70;;;;;;;7.22;95.51;99177.53;5104681;28;20039;-82
2022/12/20 11:16:26;;;;;;;8.05;3.95;;;;;;;7.22;96.96;99171.28;5109673;28;20074;-82
2022/12/20 11:19:06;;;;;;;6.25;3.28;;;;;;;7.36;100.00;99186.03;5109116;28;20054;-82
2022/12/20 11:21:44;;;;;;;15.30;6.40;;;;;;;7.16;100.00;99185.47;5103878;28;20036;-83
2022/12/20 11:24:14;;;;;;;6.47;3.17;;;;;;;7.12;100.00;99192.19;5099599;28;20055;-82
2022/12/20 11:27:05;;;;;;;8.05;3.47;;;;;;;7.02;100.00;99201.28;5098445;28;20048;-81
2022/12/20 11:29:48;;;;;;;4.97;2.97;;;;;;;6.93;100.00;99199.53;5112103;28;20051;-82
2022/12/20 11:32:34;;;;;;;12.95;6.03;;;;;;;6.82;100.00;99164.69;5111373;28;20074;-82
2022/12/20 11:35:08;;;;;;;7.75;3.70;;;;;;;6.94;100.00;99160.72;5111097;28;20050;-83
2022/12/20 11:37:44;;;;;;;7.40;3.33;;;;;;;7.06;100.00;99169.34;5109818;27;20359;-82
2022/12/20 11:40:21;;;;;;;6.10;3.45;;;;;;;7.09;100.00;99156.38;5110017;28;20051;-82
2022/12/20 11:43:00;;;;;;;4.90;2.70;;;;;;;7.12;100.00;99140.81;5107550;28;20051;-82
2022/12/20 11:45:36;;;;;;;10.63;6.20;;;;;;;7.21;100.00;99140.72;5099639;27;20051;-83
2022/12/20 11:48:21;;;;;;;6.85;4.07;;;;;;;7.32;99.45;99163.06;5099959;28;20054;-82
2022/12/20 11:50:58;;;;;;;5.45;2.85;;;;;;;7.21;100.00;99147.97;5110211;27;20054;-83
2022/12/20 11:53:32;;;;;;;7.65;3.35;;;;;;;7.20;99.71;99136.31;5107120;28;20254;-82
2022/12/20 11:56:05;;;;;;;9.00;3.22;;;;;;;7.09;100.00;99121.22;5107833;28;20043;-82
2022/12/20 11:58:42;;;;;;;4.45;3.05;;;;;;;7.33;98.54;99124.16;5106421;28;20051;-82
2022/12/20 12:01:12;;;;;;;5.10;3.00;;;;;;;7.23;99.46;99119.75;5094474;28;20047;-82
2022/12/20 12:03:46;;;;;;;4.40;2.78;;;;;;;7.34;97.92;99137.53;5110150;28;20384;-82
2022/12/20 12:06:21;;;;;;;9.82;5.38;;;;;;;7.38;98.48;99119.97;5094736;28;20050;-83
2022/12/20 12:08:53;;;;;;;4.05;3.03;;;;;;;7.28;97.76;99081.41;5110880;28;20075;-82
2022/12/20 12:11:24;;;;;;;6.90;4.10;;;;;;;7.32;97.15;99079.22;5111395;28;20054;-82
2022/12/20 12:13:51;;;;;;;5.63;2.80;;;;;;;7.44;95.74;99108.47;5109532;28;20547;-82
2022/12/20 12:16:21;;;;;;;3.58;2.30;;;;;;;7.51;95.83;99124.03;5095933;28;20491;-82
2022/12/20 12:18:49;;;;;;;;;;;;;;;7.50;95.19;99142.13;5102379;28;20044;-82
2022/12/20 12:21:22;;;;;;;5.40;2.58;;;;;;;7.50;94.72;99146.69;5108773;28;20301;-82
2022/12/20 12:24:00;;;;;;;6.55;3.45;;;;;;;7.31;95.07;99112.69;5101606;28;20044;-82
2022/12/20 12:26:29;;;;;;;10.02;3.00;;;;;;;7.33;96.29;99107.94;5089620;28;20054;-82
2022/12/20 12:28:58;;;;;;;7.05;2.85;;;;;;;7.48;97.03;99127.06;5090742;28;20052;-83
2022/12/20 12:31:32;;;;;;;10.18;3.08;;;;;;;7.41;95.14;99079.06;5106252;28;20044;-84
2022/12/20 12:34:07;;;;;;;5.00;2.67;;;;;;;7.53;94.59;99081.47;5097456;28;20131;-83
2022/12/20 12:36:50;;;;;;;3.97;2.67;;;;;;;7.53;95.61;99086.88;5109858;28;20438;-83
2022/12/20 12:39:40;;;;;;;4.43;3.00;;;;;;;7.40;95.96;99084.63;5109671;28;20121;-82
2022/12/20 12:42:24;;;;;;;7.22;3.22;;;;;;;7.41;94.30;99068.25;5110401;28;20047;-83
2022/12/20 12:44:55;;;;;;;4.07;2.33;;;;;;;7.46;94.25;99070.44;5110320;28;20461;-82
2022/12/20 12:47:36;;;;;;;3.65;2.53;;;;;;;7.59;94.43;99097.00;5105961;28;20054;-82
2022/12/20 12:50:10;;;;;;;5.18;2.90;;;;;;;7.67;94.42;99105.13;5098222;27;20131;-84
2022/12/20 12:52:46;;;;;;;5.80;2.83;;;;;;;7.52;94.69;99083.28;5122073;27;20046;-82
2022/12/20 12:55:49;;;;;;;4.80;2.42;;;;;;;7.54;93.96;99100.22;5105385;28;20044;-81
2022/12/20 12:58:33;;;;;;;4.60;2.10;;;;;;;7.45;94.46;99076.84;5093809;28;20396;-81
2022/12/20 13:01:02;;;;;;;5.47;2.72;;;;;;;7.54;94.58;99075.00;5113790;28;20048;-82
2022/12/20 13:03:38;;;;;;;5.93;2.50;;;;;;;7.60;95.56;99080.63;5113744;28;20055;-82
2022/12/20 13:06:43;;;;;;;4.22;2.28;;;;;;;7.75;93.99;99066.41;5114301;28;20051;-82
2022/12/20 13:09:36;;;;;;;4.70;2.78;;;;;;;7.89;91.24;99045.91;5092258;28;20059;-82
2022/12/20 13:12:49;;;;;;;7.35;2.65;;;;;;;7.80;91.36;99016.16;5093592;28;20051;-82
2022/12/20 13:15:51;;;;;;;3.67;2.00;;;;;;;8.06;90.77;99030.53;5113252;28;20134;-82
2022/12/20 13:18:23;;;;;;;6.13;2.72;;;;;;;8.01;90.68;99016.63;5114178;28;20130;-81
2022/12/20 13:21:19;;;;;;;3.90;2.33;;;;;;;7.98;90.90;99013.25;5114160;28;20043;-82
2022/12/20 13:23:47;;;;;;;4.63;2.20;;;;;;;8.18;91.06;99033.72;5111458;27;20048;-82
2022/12/20 13:26:46;;;;;;;2.92;1.88;;;;;;;8.13;88.22;99009.88;5112929;28;20047;-82
2022/12/20 13:29:25;;;;;;;5.13;2.80;;;;;;;8.01;89.44;99006.66;5096600;28;20048;-81
2022/12/20 13:31:52;;;;;;;4.53;2.20;;;;;;;8.21;88.91;99041.50;5113683;28;20055;-82
2022/12/20 13:34:52;;;;;;;7.80;2.28;;;;;;;8.01;89.90;99030.16;5111309;27;20044;-81
2022/12/20 13:37:26;;;;;;;7.72;2.70;;;;;;;7.82;90.99;99028.69;5111646;27;20448;-82
2022/12/20 13:39:53;;;;;;;6.63;2.42;;;;;;;7.86;90.85;99051.66;5110510;27;20541;-81
2022/12/20 13:42:33;;;;;;;10.05;2.35;;;;;;;7.74;92.18;99054.75;5111905;28;20047;-82
2022/12/20 13:45:02;;;;;;;4.55;2.40;;;;;;;7.66;93.91;99051.19;5113230;28;20138;-81
2022/12/20 13:47:38;;;;;;;5.28;2.40;;;;;;;7.67;94.27;99063.69;5113579;28;20048;-82
2022/12/20 13:50:30;;;;;;;8.10;2.55;;;;;;;7.78;93.83;99049.81;5113505;28;20497;-82
2022/12/20 13:52:58;;;;;;;8.73;3.95;;;;;;;7.67;93.10;99039.34;5111792;28;20109;-82
2022/12/20 13:55:31;;;;;;;9.95;4.35;;;;;;;7.67;93.95;99048.31;5113282;28;20056;-82
2022/12/20 13:58:05;;;;;;;13.77;6.63;;;;;;;7.64;93.90;99040.53;5109064;28;20096;-82
2022/12/20 14:00:34;;;;;;;9.05;4.80;;;;;;;7.62;92.75;99039.88;5104026;28;20348;-82
2022/12/20 14:03:02;;;;;;;6.68;3.50;;;;;;;7.65;94.30;99030.53;5102583;28;20043;-81
2022/12/20 14:05:33;;;;;;;4.78;2.67;;;;;;;7.73;94.27;99019.72;5092840;28;20132;-82
2022/12/20 14:08:02;;;;;;;7.00;3.05;;;;;;;7.70;94.45;99028.19;5108239;27;20058;-82
2022/12/20 14:10:31;;;;;;;8.27;3.85;;;;;;;7.67;93.63;99018.53;5113184;28;20051;-82
2022/12/20 14:12:57;;;;;;;9.38;4.00;;;;;;;7.65;93.82;99012.47;5109875;27;20471;-81
2022/12/20 14:15:27;;;;;;;9.80;3.15;;;;;;;7.78;92.26;99015.50;5112042;28;20395;-82
2022/12/20 14:17:55;;;;;;;;;;;;;;;7.85;90.96;99010.25;5113322;28;20406;-82
2022/12/20 14:20:30;;;;;;;17.90;3.97;;;;;;;7.67;92.14;98979.81;5113075;28;19919;-81
2022/12/20 14:23:00;;;;;;;6.30;2.88;;;;;;;7.83;92.71;99014.13;5111924;28;20051;-82
2022/12/20 14:25:36;;;;;;;5.60;2.67;;;;;;;7.73;92.39;98984.56;5114903;28;20402;-84
2022/12/20 14:28:03;;;;;;;5.25;2.53;;;;;;;7.86;90.22;98994.84;5112158;27;20043;-83
2022/12/20 14:30:32;;;;;;;6.47;2.58;;;;;;;7.86;91.66;99003.81;5112729;28;20405;-83
2022/12/20 14:33:01;;;;;;;4.43;2.60;;;;;;;7.90;90.78;98994.34;5098122;28;20044;-83
2022/12/20 14:35:28;;;;;;;8.35;2.40;;;;;;;7.89;90.68;99011.59;5092339;28;20040;-82
2022/12/20 14:37:58;;;;;;;5.18;2.33;;;;;;;7.90;90.76;98994.34;5102986;27;20055;-83
2022/12/20 14:40:25;;;;;;;7.25;2.17;;;;;;;7.94;90.24;98990.25;5108665;28;20047;-82
2022/12/20 14:42:51;;;;;;;5.07;2.40;;;;;;;7.93;91.24;99018.38;5111674;28;20491;-83
2022/12/20 14:45:21;;;;;;;4.65;2.45;;;;;;;7.98;92.07;99001.59;5111294;28;20050;-83
2022/12/20 14:47:55;;;;;;;;;;;;;;;8.10;89.46;98993.94;5113006;28;20472;-83
2022/12/20 14:50:28;;;;;;;5.32;2.53;;;;;;;8.00;88.97;98967.06;5111549;28;20486;-82
2022/12/20 14:52:56;;;;;;;4.07;2.42;;;;;;;8.03;88.83;98969.44;5110842;28;20047;-83
2022/12/20 14:55:27;;;;;;;2.97;2.40;;;;;;;8.02;89.41;98969.59;5109139;28;20272;-83
2022/12/20 14:57:55;;;;;;;8.00;2.63;;;;;;;7.94;89.08;98956.94;5108414;28;20051;-82
2022/12/20 15:00:26;;;;;;;5.10;2.88;;;;;;;8.02;90.64;98997.50;5102013;28;20407;-83
2022/12/20 15:03:00;;;;;;;5.03;2.83;;;;;;;7.90;92.23;99013.28;5099019;28;20083;-83
2022/12/20 15:05:44;;;;;;;4.82;2.88;;;;;;;7.76;92.90;99000.44;5090906;28;20051;-82
2022/12/20 15:08:12;;;;;;;5.82;2.88;;;;;;;7.80;92.38;98993.69;5091232;28;20048;-83
2022/12/20 15:10:41;;;;;;;4.05;2.38;;;;;;;7.73;93.30;98985.38;5100339;27;20040;-83
2022/12/20 15:13:12;;;;;;;3.88;2.80;;;;;;;7.73;92.80;98971.03;5111285;28;20051;-83
2022/12/20 15:15:39;;;;;;;5.57;2.75;;;;;;;7.64;92.04;98953.94;5111407;28;20047;-82
2022/12/20 15:18:11;;;;;;;6.80;3.10;;;;;;;7.68;92.05;98960.72;5110716;28;20058;-83
2022/12/20 15:20:40;;;;;;;6.43;2.65;;;;;;;7.72;89.93;98935.00;5111086;28;20077;-83
2022/12/20 15:23:13;;;;;;;3.67;2.30;;;;;;;7.89;89.27;98960.16;5110290;28;20058;-82
2022/12/20 15:25:40;;;;;;;4.90;2.50;;;;;;;7.78;89.35;98955.09;5109731;27;20471;-82
2022/12/20 15:28:13;;;;;;;3.13;2.13;;;;;;;7.77;90.24;98956.13;5109550;28;20052;-82
2022/12/20 15:30:40;;;;;;;3.25;2.22;;;;;;;7.75;90.39;98940.06;5111237;28;20099;-83
2022/12/20 15:33:13;;;;;;;7.25;2.53;;;;;;;7.72;90.53;98939.56;5111322;28;20048;-82
2022/12/20 15:35:41;;;;;;;7.35;2.22;;;;;;;7.73;91.28;98942.09;5112275;28;20054;-83
2022/12/20 15:38:15;;;;;;;4.47;2.33;;;;;;;7.73;90.60;98942.09;5112435;28;20043;-83
2022/12/20 15:40:42;;;;;;;3.47;2.03;;;;;;;7.65;90.25;98920.47;5106767;28;20051;-84
2022/12/20 15:43:12;;;;;;;6.43;2.45;;;;;;;7.67;91.72;98955.47;5110807;28;20555;-83
2022/12/20 15:45:40;;;;;;;5.18;2.47;;;;;;;7.57;91.80;98966.47;5112379;28;20051;-83
2022/12/20 15:48:13;;;;;;;3.75;2.75;;;;;;;7.44;94.22;98967.81;5111701;28;20135;-83
2022/12/20 15:50:42;;;;;;;3.75;2.55;;;;;;;7.32;94.97;98965.66;5111458;28;20498;-83
2022/12/20 15:53:13;;;;;;;7.07;2.83;;;;;;;7.21;95.71;98955.97;5110474;28;20050;-83
2022/12/20 15:55:40;;;;;;;3.35;2.05;;;;;;;7.36;94.52;98962.44;5106335;28;20074;-83
2022/12/20 15:58:06;;;;;;;5.32;2.42;;;;;;;7.31;95.97;98966.66;5106472;28;20079;-83
2022/12/20 16:00:33;;;;;;;5.50;3.25;;;;;;;7.12;98.74;98955.16;5111207;28;20070;-83
2022/12/20 16:03:00;;;;;;;6.13;2.40;;;;;;;7.15;97.92;98962.06;5101170;28;20550;-83
2022/12/20 16:05:27;;;;;;;4.22;2.50;;;;;;;7.14;96.89;98950.41;5098655;28;20151;-83
2022/12/20 16:07:55;;;;;;;3.80;2.20;;;;;;;7.20;96.70;98960.56;5097145;28;20036;-83
2022/12/20 16:10:21;;;;;;;3.25;1.98;;;;;;;7.34;93.71;98969.00;5110845;28;20051;-83
2022/12/20 16:12:48;;;;;;;3.63;2.08;;;;;;;7.47;92.53;98961.25;5110514;28;20417;-83
2022/12/20 16:15:20;;;;;;;5.63;2.20;;;;;;;7.48;93.39;98970.19;5110386;28;20053;-83
2022/12/20 16:17:47;;;;;;;3.28;2.13;;;;;;;7.42;92.06;98966.28;5111479;28;20051;-83
2022/12/20 16:20:13;;;;;;;7.10;2.45;;;;;;;7.57;90.48;98971.88;5111932;28;20051;-83
2022/12/20 16:22:40;;;;;;;4.55;2.25;;;;;;;7.60;91.35;98977.81;5114278;28;20047;-82
2022/12/20 16:25:23;;;;;;;4.10;1.77;;;;;;;7.45;94.14;98971.38;5110857;28;20063;-84
2022/12/20 16:27:50;;;;;;;4.70;2.03;;;;;;;7.46;93.86;98973.06;5116882;27;20054;-83
2022/12/20 16:30:17;;;;;;;5.63;2.67;;;;;;;7.30;96.00;98975.75;5098187;28;20143;-91
